Time;durP1;ratioP1;P1;durP2;ratioP2;P2;SDS_P1;SDS_P2;PMS_P1;PMS_P2;Temp;Humidity;BMP_temperature;BMP_pressure;BME280_temperature;BME280_humidity;BME280_pressure;Samples;Min_cycle;Max_cycle;Signal;HPM_P1;HPM_P2
2023/09/22 00:00:10;;;;;;;3.90;1.13;;;;;;;;;;5043595;28;20543;-79
2023/09/22 00:02:39;;;;;;;1.07;0.97;;;;;;;;;;5041778;28;20845;-79
2023/09/22 00:05:07;;;;;;;1.00;1.00;;;;;;;;;;5035785;28;20478;-79
2023/09/22 00:07:33;;;;;;;1.00;0.90;;;;;;;;;;5059077;28;20477;-79
2023/09/22 00:10:00;;;;;;;1.23;1.03;;;;;;;;;;5050300;28;20985;-79
2023/09/22 00:12:26;;;;;;;1.20;1.10;;;;;;;;;;5037846;28;20997;-79
2023/09/22 00:14:55;;;;;;;2.73;1.30;;;;;;;;;;5047755;28;20472;-79
2023/09/22 00:17:22;;;;;;;1.80;1.53;;;;;;;;;;5031599;28;20469;-79
2023/09/22 00:19:48;;;;;;;2.47;1.70;;;;;;;;;;5053222;28;20564;-79
2023/09/22 00:22:14;;;;;;;3.70;2.20;;;;;;;;;;5046940;28;20472;-79
2023/09/22 00:24:41;;;;;;;2.10;2.00;;;;;;;;;;5036910;28;20861;-79
2023/09/22 00:27:07;;;;;;;2.60;2.40;;;;;;;;;;5040453;28;20438;-79
2023/09/22 00:29:34;;;;;;;3.10;2.80;;;;;;;;;;5046259;28;20840;-79
2023/09/22 00:32:03;;;;;;;2.93;2.60;;;;;;;;;;5043339;28;20440;-79
2023/09/22 00:34:30;;;;;;;2.87;2.67;;;;;;;;;;5041523;28;20567;-79
2023/09/22 00:36:57;;;;;;;3.27;2.97;;;;;;;;;;5037400;28;20468;-79
2023/09/22 00:39:24;;;;;;;3.67;3.37;;;;;;;;;;5044554;28;21008;-79
2023/09/22 00:41:51;;;;;;;5.23;3.77;;;;;;;;;;5046315;28;20439;-79
2023/09/22 00:44:17;;;;;;;4.47;4.17;;;;;;;;;;5054601;28;20464;-79
2023/09/22 00:46:44;;;;;;;5.90;3.27;;;;;;;;;;5042976;28;20996;-79
2023/09/22 00:49:12;;;;;;;3.60;3.30;;;;;;;;;;5047591;28;20498;-79
2023/09/22 00:51:39;;;;;;;5.53;3.00;;;;;;;;;;5050600;28;20480;-79
2023/09/22 00:54:06;;;;;;;4.10;3.50;;;;;;;;;;5042268;28;20444;-79
2023/09/22 00:56:35;;;;;;;5.67;4.20;;;;;;;;;;5033706;28;20493;-78
2023/09/22 00:59:02;;;;;;;6.30;4.40;;;;;;;;;;5028061;28;20530;-79
2023/09/22 01:01:28;;;;;;;5.07;4.27;;;;;;;;;;5039404;28;20479;-79
2023/09/22 01:03:55;;;;;;;5.17;4.67;;;;;;;;;;5051435;28;20438;-79
2023/09/22 01:06:23;;;;;;;5.50;5.00;;;;;;;;;;5050419;28;20479;-79
2023/09/22 01:08:49;;;;;;;4.90;4.50;;;;;;;;;;5038952;28;20457;-79
2023/09/22 01:11:15;;;;;;;4.97;4.53;;;;;;;;;;5056802;28;20466;-79
2023/09/22 01:13:42;;;;;;;4.13;3.83;;;;;;;;;;5049775;28;20468;-79
2023/09/22 01:16:08;;;;;;;3.80;3.40;;;;;;;;;;5038665;28;20472;-79
2023/09/22 01:18:35;;;;;;;4.73;4.33;;;;;;;;;;5052842;28;20468;-79
2023/09/22 01:21:03;;;;;;;5.77;4.63;;;;;;;;;;5050936;28;20472;-78
2023/09/22 01:23:31;;;;;;;4.77;4.27;;;;;;;;;;5056102;22;21100;-80
2023/09/22 01:25:57;;;;;;;4.40;4.00;;;;;;;;;;4981842;28;20442;-80
2023/09/22 01:28:24;;;;;;;5.63;4.67;;;;;;;;;;4980300;28;20483;-80
2023/09/22 01:30:50;;;;;;;5.57;4.70;;;;;;;;;;4975196;28;20493;-80
2023/09/22 01:33:18;;;;;;;7.80;5.30;;;;;;;;;;4989533;28;20473;-81
2023/09/22 01:35:45;;;;;;;5.20;4.70;;;;;;;;;;4977004;28;20522;-81
2023/09/22 01:38:13;;;;;;;6.20;5.60;;;;;;;;;;4997782;28;20489;-81
2023/09/22 01:40:40;;;;;;;5.17;4.43;;;;;;;;;;4998288;28;20453;-80
2023/09/22 01:43:08;;;;;;;5.50;4.70;;;;;;;;;;4981384;28;20468;-81
2023/09/22 01:45:35;;;;;;;5.43;4.90;;;;;;;;;;4971970;28;20534;-80
2023/09/22 01:48:01;;;;;;;8.87;6.43;;;;;;;;;;4960612;28;20455;-80
2023/09/22 01:50:29;;;;;;;8.00;7.20;;;;;;;;;;4999825;28;20461;-80
2023/09/22 01:52:56;;;;;;;6.77;5.83;;;;;;;;;;4977285;28;20901;-80
2023/09/22 01:55:22;;;;;;;7.17;5.97;;;;;;;;;;4979539;28;20471;-83
2023/09/22 01:57:50;;;;;;;7.53;6.40;;;;;;;;;;4981441;28;20446;-81
2023/09/22 02:00:18;;;;;;;8.33;7.03;;;;;;;;;;4998512;28;20955;-81
2023/09/22 02:02:47;;;;;;;6.17;5.57;;;;;;;;;;4971268;28;20475;-81
2023/09/22 02:05:15;;;;;;;10.63;7.17;;;;;;;;;;4980058;28;20467;-81
2023/09/22 02:07:41;;;;;;;6.67;5.77;;;;;;;;;;4970561;28;20551;-81
2023/09/22 02:10:09;;;;;;;6.70;6.10;;;;;;;;;;4975522;28;20542;-81
2023/09/22 02:12:38;;;;;;;7.30;6.60;;;;;;;;;;5006040;28;20469;-81
2023/09/22 02:15:09;;;;;;;9.83;6.57;;;;;;;;;;4967835;28;20489;-81
2023/09/22 02:17:36;;;;;;;9.10;8.20;;;;;;;;;;4980688;28;20446;-81
2023/09/22 02:20:05;;;;;;;13.70;12.13;;;;;;;;;;4991757;28;20475;-81
2023/09/22 02:22:32;;;;;;;11.70;10.53;;;;;;;;;;4959923;28;20485;-81
2023/09/22 02:24:59;;;;;;;10.63;9.60;;;;;;;;;;4973365;28;20501;-80
2023/09/22 02:27:25;;;;;;;11.23;10.03;;;;;;;;;;4968139;28;20488;-81
2023/09/22 02:29:51;;;;;;;12.03;10.77;;;;;;;;;;4976465;28;20486;-81
2023/09/22 02:32:19;;;;;;;14.50;11.27;;;;;;;;;;4981260;28;20470;-81
2023/09/22 02:34:45;;;;;;;12.30;11.00;;;;;;;;;;4997249;28;20447;-80
2023/09/22 02:37:12;;;;;;;14.63;12.63;;;;;;;;;;4966445;28;21015;-80
2023/09/22 02:39:39;;;;;;;12.50;10.17;;;;;;;;;;4966903;28;20465;-80
2023/09/22 02:42:05;;;;;;;15.30;12.40;;;;;;;;;;4981590;28;20525;-81
2023/09/22 02:44:32;;;;;;;12.80;11.10;;;;;;;;;;4987340;28;20483;-80
2023/09/22 02:47:00;;;;;;;15.47;11.70;;;;;;;;;;4977295;28;20501;-80
2023/09/22 02:49:30;;;;;;;17.67;13.47;;;;;;;;;;4974228;28;20867;-82
2023/09/22 02:51:57;;;;;;;14.53;12.87;;;;;;;;;;4974944;28;20478;-81
2023/09/22 02:54:23;;;;;;;17.50;13.73;;;;;;;;;;4983850;28;20984;-81
2023/09/22 02:56:50;;;;;;;18.07;13.50;;;;;;;;;;4979019;28;20437;-81
2023/09/22 02:59:17;;;;;;;17.57;14.20;;;;;;;;;;4978368;28;20438;-80
2023/09/22 03:01:45;;;;;;;17.13;13.60;;;;;;;;;;4993290;28;20452;-81
2023/09/22 03:04:11;;;;;;;15.90;13.30;;;;;;;;;;4983037;28;20441;-81
2023/09/22 03:06:39;;;;;;;17.27;15.47;;;;;;;;;;4983108;28;20454;-80
2023/09/22 03:09:06;;;;;;;15.37;13.10;;;;;;;;;;4984717;28;20853;-80
2023/09/22 03:11:33;;;;;;;16.70;13.90;;;;;;;;;;4972229;28;20479;-80
2023/09/22 03:13:59;;;;;;;19.73;15.13;;;;;;;;;;4981829;28;20486;-80
2023/09/22 03:16:26;;;;;;;24.10;15.77;;;;;;;;;;4984729;28;20449;-80
2023/09/22 03:18:55;;;;;;;18.70;14.07;;;;;;;;;;4980100;28;20471;-80
2023/09/22 03:21:22;;;;;;;22.33;13.90;;;;;;;;;;4967259;28;20891;-80
2023/09/22 03:23:50;;;;;;;15.60;13.40;;;;;;;;;;4989860;28;20453;-80
2023/09/22 03:26:17;;;;;;;19.97;13.30;;;;;;;;;;4996058;28;20983;-81
2023/09/22 03:28:44;;;;;;;18.40;14.87;;;;;;;;;;4990763;28;20468;-80
2023/09/22 03:31:10;;;;;;;17.47;14.90;;;;;;;;;;4970143;28;20449;-80
2023/09/22 03:33:37;;;;;;;21.80;14.80;;;;;;;;;;4975927;28;21049;-80
2023/09/22 03:36:05;;;;;;;23.20;15.83;;;;;;;;;;4977371;28;20468;-80
2023/09/22 03:38:32;;;;;;;18.80;15.53;;;;;;;;;;4964244;28;20452;-80
2023/09/22 03:41:00;;;;;;;19.17;15.70;;;;;;;;;;4982343;28;20573;-80
2023/09/22 03:43:28;;;;;;;18.83;14.77;;;;;;;;;;4974500;28;20476;-80
2023/09/22 03:45:55;;;;;;;18.67;16.10;;;;;;;;;;5043496;28;20470;-81
2023/09/22 03:48:22;;;;;;;19.60;15.27;;;;;;;;;;4969145;28;21068;-80
2023/09/22 03:50:50;;;;;;;22.00;15.57;;;;;;;;;;4967196;28;20488;-80
2023/09/22 03:53:17;;;;;;;19.50;16.60;;;;;;;;;;4978140;28;20457;-80
2023/09/22 03:55:44;;;;;;;21.60;15.73;;;;;;;;;;4972251;28;20455;-80
2023/09/22 03:58:12;;;;;;;24.07;17.40;;;;;;;;;;4989124;28;20440;-80
2023/09/22 04:00:38;;;;;;;26.20;16.90;;;;;;;;;;4985722;28;20475;-80
2023/09/22 04:03:07;;;;;;;22.70;17.57;;;;;;;;;;4984866;28;20993;-80
2023/09/22 04:05:34;;;;;;;23.43;17.27;;;;;;;;;;4974891;28;20450;-80
2023/09/22 04:08:00;;;;;;;22.77;16.93;;;;;;;;;;4975786;28;20438;-80
2023/09/22 04:10:26;;;;;;;21.60;17.30;;;;;;;;;;4970098;28;20467;-80
2023/09/22 04:12:53;;;;;;;25.90;17.10;;;;;;;;;;4971899;28;20453;-80
2023/09/22 04:15:23;;;;;;;25.07;17.73;;;;;;;;;;4978719;28;20445;-80
2023/09/22 04:17:51;;;;;;;28.13;18.73;;;;;;;;;;4963589;28;20575;-80
2023/09/22 04:20:28;;;;;;;26.03;18.13;;;;;;;;;;4992968;28;20513;-80
2023/09/22 04:22:55;;;;;;;23.50;17.80;;;;;;;;;;4967584;28;20522;-80
2023/09/22 04:25:29;;;;;;;26.67;19.53;;;;;;;;;;4975351;28;20530;-80
2023/09/22 04:27:57;;;;;;;28.03;19.80;;;;;;;;;;4989992;28;20481;-80
2023/09/22 04:30:25;;;;;;;23.03;18.60;;;;;;;;;;4977948;28;20573;-81
2023/09/22 04:32:53;;;;;;;23.93;19.87;;;;;;;;;;4977133;28;21038;-80
2023/09/22 04:35:20;;;;;;;27.53;18.50;;;;;;;;;;4981439;28;20507;-80
2023/09/22 04:37:47;;;;;;;29.33;21.07;;;;;;;;;;4958251;28;20555;-80
2023/09/22 04:40:23;;;;;;;29.97;20.03;;;;;;;;;;4991303;28;20472;-80
2023/09/22 04:42:49;;;;;;;27.33;21.73;;;;;;;;;;4988410;28;20507;-80
2023/09/22 04:45:17;;;;;;;33.23;23.20;;;;;;;;;;4978630;28;20437;-80
2023/09/22 04:47:46;;;;;;;26.37;20.53;;;;;;;;;;4976082;28;20457;-80
2023/09/22 04:50:15;;;;;;;27.53;20.13;;;;;;;;;;4983838;28;20464;-80
2023/09/22 04:52:41;;;;;;;27.43;21.00;;;;;;;;;;4964515;28;20443;-81
2023/09/22 04:55:10;;;;;;;28.50;22.00;;;;;;;;;;4976505;28;20483;-81
2023/09/22 04:57:36;;;;;;;28.10;21.57;;;;;;;;;;4971164;28;20469;-79
2023/09/22 05:00:12;;;;;;;25.97;19.50;;;;;;;;;;4987335;28;20503;-81
2023/09/22 05:02:38;;;;;;;28.87;22.00;;;;;;;;;;4963471;28;20564;-82
2023/09/22 05:05:07;;;;;;;30.20;21.27;;;;;;;;;;4979080;28;20474;-81
2023/09/22 05:07:33;;;;;;;28.83;20.40;;;;;;;;;;4975001;28;20802;-80
2023/09/22 05:10:00;;;;;;;29.40;21.00;;;;;;;;;;4986594;28;21010;-81
2023/09/22 05:12:27;;;;;;;30.20;22.60;;;;;;;;;;4974172;28;20447;-82
2023/09/22 05:14:55;;;;;;;25.90;19.13;;;;;;;;;;4984284;28;20491;-80
2023/09/22 05:17:22;;;;;;;28.33;20.70;;;;;;;;;;4972966;28;20565;-81
2023/09/22 05:19:48;;;;;;;24.93;20.40;;;;;;;;;;4987363;28;20987;-81
2023/09/22 05:22:17;;;;;;;31.67;21.50;;;;;;;;;;4975890;28;20474;-81
2023/09/22 05:24:44;;;;;;;27.30;21.60;;;;;;;;;;4969850;28;20507;-80
2023/09/22 05:27:11;;;;;;;27.00;20.90;;;;;;;;;;5002844;28;20966;-81
2023/09/22 05:29:38;;;;;;;26.90;21.07;;;;;;;;;;4973328;28;20544;-81
2023/09/22 05:32:05;;;;;;;21.80;19.37;;;;;;;;;;4984022;28;20482;-81
2023/09/22 05:34:31;;;;;;;28.27;20.70;;;;;;;;;;4964536;28;20461;-79
2023/09/22 05:37:00;;;;;;;23.57;18.87;;;;;;;;;;4979467;28;20456;-79
2023/09/22 05:39:28;;;;;;;23.80;18.47;;;;;;;;;;5019210;28;20886;-81
2023/09/22 05:41:56;;;;;;;25.00;20.40;;;;;;;;;;4961241;28;20471;-80
2023/09/22 05:44:23;;;;;;;25.77;18.63;;;;;;;;;;4990829;28;20550;-81
2023/09/22 05:46:51;;;;;;;24.63;19.50;;;;;;;;;;4971561;28;20491;-80
2023/09/22 05:49:18;;;;;;;26.70;18.20;;;;;;;;;;4976214;28;20451;-81
2023/09/22 05:51:44;;;;;;;25.07;19.40;;;;;;;;;;4971031;28;20467;-80
2023/09/22 05:54:11;;;;;;;22.53;17.40;;;;;;;;;;4977295;28;20474;-81
2023/09/22 05:56:40;;;;;;;26.20;17.10;;;;;;;;;;4963323;28;20483;-80
2023/09/22 05:59:06;;;;;;;21.17;17.73;;;;;;;;;;5022725;28;20500;-80
2023/09/22 06:01:36;;;;;;;23.67;17.20;;;;;;;;;;4969015;28;20510;-80
2023/09/22 06:04:04;;;;;;;23.10;16.90;;;;;;;;;;4976396;28;20970;-80
2023/09/22 06:06:32;;;;;;;22.87;17.00;;;;;;;;;;4980742;28;20536;-80
2023/09/22 06:08:58;;;;;;;24.37;17.43;;;;;;;;;;4978110;28;20963;-80
2023/09/22 06:11:25;;;;;;;21.40;17.27;;;;;;;;;;4966779;28;20487;-80
2023/09/22 06:13:53;;;;;;;23.50;16.70;;;;;;;;;;4979402;28;20825;-80
2023/09/22 06:16:19;;;;;;;20.03;15.70;;;;;;;;;;4983311;28;20483;-80
2023/09/22 06:18:45;;;;;;;18.37;15.07;;;;;;;;;;4981911;28;20448;-81
2023/09/22 06:21:12;;;;;;;20.77;16.73;;;;;;;;;;4986279;28;20445;-80
2023/09/22 06:23:39;;;;;;;21.17;16.10;;;;;;;;;;4974566;28;20467;-81
2023/09/22 06:26:08;;;;;;;20.20;16.20;;;;;;;;;;4981664;28;20457;-80
2023/09/22 06:28:35;;;;;;;19.40;16.17;;;;;;;;;;4980033;28;20453;-80
2023/09/22 06:31:03;;;;;;;21.13;14.90;;;;;;;;;;4980021;28;20581;-81
2023/09/22 06:33:30;;;;;;;21.13;15.43;;;;;;;;;;4991895;28;20452;-80
2023/09/22 06:35:57;;;;;;;20.27;14.17;;;;;;;;;;4972428;28;20471;-82
2023/09/22 06:38:23;;;;;;;17.17;13.30;;;;;;;;;;4960479;28;20443;-80
2023/09/22 06:40:54;;;;;;;17.50;14.57;;;;;;;;;;4980079;28;20487;-80
2023/09/22 06:43:23;;;;;;;18.60;14.93;;;;;;;;;;4977168;28;20507;-81
2023/09/22 06:45:51;;;;;;;20.87;15.10;;;;;;;;;;4963309;28;20468;-80
2023/09/22 06:48:22;;;;;;;23.53;16.03;;;;;;;;;;4983081;28;20449;-81
2023/09/22 06:50:51;;;;;;;16.70;13.33;;;;;;;;;;4976423;28;20487;-80
2023/09/22 06:53:17;;;;;;;20.57;15.20;;;;;;;;;;4974170;28;20474;-83
2023/09/22 06:55:44;;;;;;;17.47;13.90;;;;;;;;;;4964741;28;20931;-80
2023/09/22 06:58:10;;;;;;;16.67;13.27;;;;;;;;;;4965493;28;20532;-80
2023/09/22 07:00:37;;;;;;;20.43;14.73;;;;;;;;;;4958300;28;20442;-80
2023/09/22 07:03:04;;;;;;;19.20;15.37;;;;;;;;;;5006482;28;20475;-81
2023/09/22 07:05:32;;;;;;;21.87;15.77;;;;;;;;;;4982076;28;20435;-80
2023/09/22 07:07:58;;;;;;;23.13;16.57;;;;;;;;;;4975880;28;20451;-83
2023/09/22 07:10:25;;;;;;;25.33;17.53;;;;;;;;;;4976595;28;21008;-80
2023/09/22 07:12:52;;;;;;;19.63;15.60;;;;;;;;;;4975418;28;20454;-80
2023/09/22 07:15:22;;;;;;;22.73;17.13;;;;;;;;;;4979494;28;20464;-80
2023/09/22 07:17:48;;;;;;;20.23;15.33;;;;;;;;;;4991787;28;20471;-80
2023/09/22 07:20:15;;;;;;;20.20;17.03;;;;;;;;;;4983499;28;20483;-81
2023/09/22 07:22:44;;;;;;;28.63;17.47;;;;;;;;;;4979430;28;20474;-80
2023/09/22 07:25:11;;;;;;;20.93;16.83;;;;;;;;;;4997990;28;20467;-80
2023/09/22 07:27:39;;;;;;;21.40;16.20;;;;;;;;;;4986535;28;20866;-81
2023/09/22 07:30:09;;;;;;;22.73;16.73;;;;;;;;;;4991104;28;20902;-81
2023/09/22 07:32:36;;;;;;;23.80;15.93;;;;;;;;;;4975063;28;20848;-80
2023/09/22 07:35:04;;;;;;;22.03;17.07;;;;;;;;;;4988680;28;20445;-80
2023/09/22 07:37:31;;;;;;;21.73;17.40;;;;;;;;;;4985546;28;20557;-81
2023/09/22 07:39:59;;;;;;;18.80;15.57;;;;;;;;;;4960994;28;20479;-84
2023/09/22 07:42:31;;;;;;;19.93;15.17;;;;;;;;;;4968012;28;20447;-81
2023/09/22 07:44:57;;;;;;;20.20;15.07;;;;;;;;;;5006313;28;20486;-81
2023/09/22 07:47:25;;;;;;;19.97;15.07;;;;;;;;;;4984678;28;20447;-80
2023/09/22 07:49:54;;;;;;;18.87;14.90;;;;;;;;;;4985273;28;20470;-82
2023/09/22 07:52:20;;;;;;;17.57;13.70;;;;;;;;;;4981575;28;20473;-81
2023/09/22 07:54:48;;;;;;;17.90;14.60;;;;;;;;;;4974151;28;20480;-80
2023/09/22 07:57:16;;;;;;;15.97;12.50;;;;;;;;;;4964636;28;20456;-81
2023/09/22 07:59:43;;;;;;;16.33;14.37;;;;;;;;;;4980489;28;20446;-80
2023/09/22 08:02:09;;;;;;;16.93;14.20;;;;;;;;;;5022722;28;20449;-80
2023/09/22 08:04:39;;;;;;;18.10;12.97;;;;;;;;;;4978956;28;20452;-80
2023/09/22 08:07:07;;;;;;;15.27;12.93;;;;;;;;;;4982155;28;20943;-81
2023/09/22 08:09:33;;;;;;;14.90;12.10;;;;;;;;;;4969078;28;20467;-81
2023/09/22 08:12:01;;;;;;;17.27;13.10;;;;;;;;;;4975469;28;20479;-81
2023/09/22 08:14:29;;;;;;;13.60;12.00;;;;;;;;;;4980417;28;20467;-80
2023/09/22 08:16:56;;;;;;;15.83;12.07;;;;;;;;;;4979915;28;20490;-81
2023/09/22 08:19:22;;;;;;;15.80;12.63;;;;;;;;;;4960730;28;20948;-81
2023/09/22 08:21:48;;;;;;;13.33;10.97;;;;;;;;;;4969133;28;20820;-81
2023/09/22 08:24:17;;;;;;;14.93;10.47;;;;;;;;;;4984203;28;20464;-80
2023/09/22 08:26:43;;;;;;;13.50;11.23;;;;;;;;;;4971055;28;20838;-81
2023/09/22 08:29:10;;;;;;;16.73;10.70;;;;;;;;;;4950250;28;20434;-81
2023/09/22 08:31:38;;;;;;;11.63;10.30;;;;;;;;;;4980850;28;20476;-81
2023/09/22 08:34:04;;;;;;;17.10;9.63;;;;;;;;;;4981688;28;20438;-81
2023/09/22 08:36:30;;;;;;;18.10;9.90;;;;;;;;;;4974816;28;20455;-79
2023/09/22 08:38:57;;;;;;;12.07;9.13;;;;;;;;;;4973539;28;20452;-79
2023/09/22 08:41:26;;;;;;;13.87;8.30;;;;;;;;;;4972404;28;20466;-81
2023/09/22 08:43:53;;;;;;;11.80;8.10;;;;;;;;;;4960052;28;20442;-80
2023/09/22 08:46:19;;;;;;;11.47;8.07;;;;;;;;;;4970038;28;20472;-81
2023/09/22 08:48:50;;;;;;;13.23;8.47;;;;;;;;;;4976925;28;20479;-79
2023/09/22 08:51:17;;;;;;;10.00;7.80;;;;;;;;;;4972392;28;20583;-80
2023/09/22 08:53:44;;;;;;;10.40;8.47;;;;;;;;;;4981643;28;20472;-80
2023/09/22 08:56:10;;;;;;;10.43;9.43;;;;;;;;;;4976180;28;20848;-81
2023/09/22 08:58:37;;;;;;;15.03;10.60;;;;;;;;;;4987038;28;20448;-81
2023/09/22 09:01:07;;;;;;;13.60;10.37;;;;;;;;;;4980764;28;20827;-79
2023/09/22 09:03:34;;;;;;;11.10;9.80;;;;;;;;;;4980150;28;20442;-80
2023/09/22 09:06:09;;;;;;;15.23;11.70;;;;;;;;;;5064746;28;20462;-79
2023/09/22 09:08:36;;;;;;;14.20;11.33;;;;;;;;;;5011609;28;20503;-81
2023/09/22 09:11:07;;;;;;;14.80;12.80;;;;;;;;;;4974618;28;20480;-80
2023/09/22 09:13:34;;;;;;;14.47;12.63;;;;;;;;;;5005553;28;20901;-81
2023/09/22 09:16:01;;;;;;;14.53;12.63;;;;;;;;;;5036628;28;20983;-82
2023/09/22 09:18:29;;;;;;;15.13;11.77;;;;;;;;;;4974783;28;20479;-82
2023/09/22 09:21:06;;;;;;;14.87;13.07;;;;;;;;;;4975475;28;20445;-82
2023/09/22 09:23:34;;;;;;;14.93;13.57;;;;;;;;;;4972228;28;20453;-81
2023/09/22 09:26:02;;;;;;;15.30;13.70;;;;;;;;;;4980930;28;20453;-81
2023/09/22 09:28:29;;;;;;;15.30;13.80;;;;;;;;;;4974097;28;20455;-82
2023/09/22 09:30:57;;;;;;;18.10;13.50;;;;;;;;;;5028760;28;20469;-83
2023/09/22 09:33:24;;;;;;;16.13;14.53;;;;;;;;;;4978376;28;20459;-81
2023/09/22 09:35:51;;;;;;;14.40;13.00;;;;;;;;;;4989377;28;20479;-82
2023/09/22 09:38:17;;;;;;;16.47;13.90;;;;;;;;;;4974944;28;20489;-80
2023/09/22 09:40:47;;;;;;;24.37;16.20;;;;;;;;;;4993968;28;20834;-81
2023/09/22 09:43:14;;;;;;;14.93;13.20;;;;;;;;;;4977807;28;20475;-80
2023/09/22 09:45:43;;;;;;;16.47;14.83;;;;;;;;;;4987929;28;20454;-80
2023/09/22 09:48:12;;;;;;;13.70;12.40;;;;;;;;;;4969626;28;20482;-83
2023/09/22 09:50:41;;;;;;;14.17;12.87;;;;;;;;;;4982656;28;20450;-81
2023/09/22 09:53:14;;;;;;;12.97;11.77;;;;;;;;;;4959360;28;20483;-81
2023/09/22 09:55:42;;;;;;;15.10;13.40;;;;;;;;;;4970707;28;20512;-80
2023/09/22 09:58:11;;;;;;;13.47;12.07;;;;;;;;;;4972458;28;20470;-79
2023/09/22 10:00:39;;;;;;;13.33;12.03;;;;;;;;;;4982066;28;20442;-82
2023/09/22 10:03:07;;;;;;;11.90;10.80;;;;;;;;;;4981024;28;20995;-80
2023/09/22 10:05:34;;;;;;;12.70;10.93;;;;;;;;;;4992028;28;20947;-80
2023/09/22 10:08:01;;;;;;;13.27;11.90;;;;;;;;;;5025401;28;21018;-80
2023/09/22 10:10:28;;;;;;;13.10;11.80;;;;;;;;;;5003943;28;20441;-79
2023/09/22 10:12:56;;;;;;;13.70;11.17;;;;;;;;;;4987432;28;20446;-79
2023/09/22 10:15:38;;;;;;;12.00;10.90;;;;;;;;;;4969453;28;20866;-83
2023/09/22 10:18:06;;;;;;;11.07;10.00;;;;;;;;;;4965417;28;20503;-81
2023/09/22 10:20:43;;;;;;;14.40;10.70;;;;;;;;;;5014271;28;21091;-81
2023/09/22 10:23:16;;;;;;;11.27;9.30;;;;;;;;;;4984958;28;20905;-80
2023/09/22 10:25:42;;;;;;;8.07;7.47;;;;;;;;;;4981407;28;20943;-80
2023/09/22 10:28:10;;;;;;;8.47;7.43;;;;;;;;;;4992962;28;20454;-81
2023/09/22 10:31:01;;;;;;;8.67;7.80;;;;;;;;;;4970752;28;20442;-80
2023/09/22 10:33:30;;;;;;;11.77;7.73;;;;;;;;;;4986495;28;20456;-80
2023/09/22 10:35:56;;;;;;;7.17;6.63;;;;;;;;;;4976453;28;20482;-80
2023/09/22 10:38:23;;;;;;;7.23;6.57;;;;;;;;;;4982468;28;20474;-80
2023/09/22 10:41:05;;;;;;;7.67;6.97;;;;;;;;;;4979594;28;21039;-80
2023/09/22 10:43:32;;;;;;;7.50;6.80;;;;;;;;;;4980026;28;20946;-79
2023/09/22 10:45:59;;;;;;;7.67;6.10;;;;;;;;;;4984474;28;20547;-82
2023/09/22 10:48:31;;;;;;;7.67;7.10;;;;;;;;;;5042031;28;20458;-81
2023/09/22 10:50:57;;;;;;;7.27;6.13;;;;;;;;;;5023576;28;20480;-81
2023/09/22 10:53:23;;;;;;;6.90;5.53;;;;;;;;;;4984349;28;20450;-80
2023/09/22 10:55:51;;;;;;;6.43;5.30;;;;;;;;;;4975184;28;20480;-81
2023/09/22 10:58:21;;;;;;;5.97;4.83;;;;;;;;;;4970119;28;20471;-81
2023/09/22 11:00:55;;;;;;;7.03;4.40;;;;;;;;;;5000755;28;20449;-81
2023/09/22 11:03:21;;;;;;;4.30;3.90;;;;;;;;;;4972331;28;20470;-79
2023/09/22 11:05:57;;;;;;;4.17;3.87;;;;;;;;;;4976681;28;20490;-82
2023/09/22 11:08:24;;;;;;;9.20;4.97;;;;;;;;;;4980512;28;20470;-80
2023/09/22 11:10:51;;;;;;;6.43;4.43;;;;;;;;;;4977659;28;20472;-80
2023/09/22 11:13:18;;;;;;;7.93;5.60;;;;;;;;;;4972607;28;20502;-81
2023/09/22 11:15:49;;;;;;;8.13;4.60;;;;;;;;;;4975755;28;21003;-81
2023/09/22 11:18:22;;;;;;;6.13;4.50;;;;;;;;;;4948815;28;20659;-82
2023/09/22 11:20:54;;;;;;;4.60;4.30;;;;;;;;;;4987407;28;20470;-80
2023/09/22 11:23:21;;;;;;;4.90;4.60;;;;;;;;;;4973886;28;20482;-81
2023/09/22 11:25:53;;;;;;;5.87;4.60;;;;;;;;;;4961222;28;20472;-81
2023/09/22 11:28:22;;;;;;;4.73;4.43;;;;;;;;;;4969144;28;20472;-80
2023/09/22 11:30:50;;;;;;;4.93;4.63;;;;;;;;;;4960610;28;20497;-81
2023/09/22 11:33:17;;;;;;;4.37;4.07;;;;;;;;;;4974067;28;20478;-81
2023/09/22 11:35:43;;;;;;;5.20;4.80;;;;;;;;;;4979212;28;20475;-80
2023/09/22 11:38:27;;;;;;;4.90;4.50;;;;;;;;;;4982828;28;20467;-80
2023/09/22 11:41:02;;;;;;;3.90;3.50;;;;;;;;;;4956199;28;20547;-80
2023/09/22 11:43:29;;;;;;;6.13;3.97;;;;;;;;;;4971844;28;20490;-81
2023/09/22 11:46:04;;;;;;;3.70;3.40;;;;;;;;;;4979589;28;20475;-80
2023/09/22 11:48:31;;;;;;;4.20;3.90;;;;;;;;;;4972698;28;20851;-81
2023/09/22 11:50:57;;;;;;;4.83;4.33;;;;;;;;;;4971290;28;20461;-80
2023/09/22 11:53:28;;;;;;;4.97;3.70;;;;;;;;;;4996347;28;20490;-80
2023/09/22 11:55:55;;;;;;;4.60;4.33;;;;;;;;;;4955533;28;20842;-79
2023/09/22 11:58:23;;;;;;;4.93;4.53;;;;;;;;;;4968736;28;20481;-80
2023/09/22 12:00:52;;;;;;;5.30;4.90;;;;;;;;;;4963526;28;20472;-79
2023/09/22 12:03:19;;;;;;;4.53;4.13;;;;;;;;;;4987116;28;20470;-81
2023/09/22 12:05:45;;;;;;;4.77;4.37;;;;;;;;;;4967460;28;20467;-80
2023/09/22 12:08:12;;;;;;;5.00;4.57;;;;;;;;;;4981860;28;20479;-81
2023/09/22 12:10:40;;;;;;;5.50;4.33;;;;;;;;;;4979113;28;20487;-80
2023/09/22 12:13:07;;;;;;;4.40;4.00;;;;;;;;;;4979543;28;20494;-79
2023/09/22 12:15:35;;;;;;;7.83;4.50;;;;;;;;;;4972805;28;20514;-83
2023/09/22 12:18:03;;;;;;;3.97;3.70;;;;;;;;;;4978805;28;20985;-81
2023/09/22 12:20:29;;;;;;;4.40;4.10;;;;;;;;;;4969131;28;20905;-80
2023/09/22 12:22:55;;;;;;;5.20;4.20;;;;;;;;;;4973904;28;20472;-81
2023/09/22 12:25:24;;;;;;;4.27;3.97;;;;;;;;;;4962775;28;20487;-81
2023/09/22 12:28:06;;;;;;;3.60;3.40;;;;;;;;;;4980839;28;20561;-83
2023/09/22 12:30:34;;;;;;;5.20;4.70;;;;;;;;;;5017569;28;20479;-80
2023/09/22 12:33:00;;;;;;;4.77;4.37;;;;;;;;;;4977958;28;20549;-79
2023/09/22 12:35:28;;;;;;;4.73;4.33;;;;;;;;;;4960247;28;20467;-81
2023/09/22 12:37:54;;;;;;;4.27;4.07;;;;;;;;;;4974471;28;20507;-79
2023/09/22 12:40:21;;;;;;;4.43;4.20;;;;;;;;;;4970315;28;20467;-81
2023/09/22 12:42:49;;;;;;;4.80;4.20;;;;;;;;;;4977697;28;20466;-80
2023/09/22 12:45:16;;;;;;;4.07;3.77;;;;;;;;;;4982753;28;20466;-81
2023/09/22 12:47:44;;;;;;;4.23;3.90;;;;;;;;;;4975804;28;21023;-80
2023/09/22 12:50:11;;;;;;;4.23;3.70;;;;;;;;;;4995270;28;20507;-79
2023/09/22 12:52:38;;;;;;;3.60;3.30;;;;;;;;;;5031587;28;20479;-83
2023/09/22 12:55:10;;;;;;;5.07;4.40;;;;;;;;;;4987317;28;20496;-79
2023/09/22 12:57:37;;;;;;;4.27;3.40;;;;;;;;;;4970338;28;20507;-79
2023/09/22 13:00:04;;;;;;;4.03;3.77;;;;;;;;;;4980030;28;20474;-79
2023/09/22 13:02:31;;;;;;;3.70;3.40;;;;;;;;;;4960144;28;21071;-78
2023/09/22 13:04:59;;;;;;;3.57;2.70;;;;;;;;;;4974842;28;20483;-79
2023/09/22 13:07:25;;;;;;;3.20;2.90;;;;;;;;;;4976035;28;20475;-81
2023/09/22 13:09:52;;;;;;;3.37;3.17;;;;;;;;;;4983432;28;20472;-80
2023/09/22 13:12:18;;;;;;;3.90;3.60;;;;;;;;;;4971818;28;20445;-79
2023/09/22 13:14:45;;;;;;;3.80;3.50;;;;;;;;;;4977153;28;20472;-79
2023/09/22 13:17:13;;;;;;;3.13;2.87;;;;;;;;;;4984476;28;20567;-80
2023/09/22 13:19:40;;;;;;;6.03;3.80;;;;;;;;;;4998101;28;20485;-81
2023/09/22 13:22:08;;;;;;;3.23;3.03;;;;;;;;;;4978549;28;20479;-79
2023/09/22 13:24:34;;;;;;;3.10;2.80;;;;;;;;;;4977712;28;20464;-79
2023/09/22 13:27:00;;;;;;;3.90;3.60;;;;;;;;;;4977632;28;20992;-80
2023/09/22 13:29:27;;;;;;;3.67;3.43;;;;;;;;;;5019840;28;21003;-81
2023/09/22 13:31:56;;;;;;;3.50;3.20;;;;;;;;;;4956298;28;20534;-81
2023/09/22 13:34:22;;;;;;;4.37;3.43;;;;;;;;;;4982720;28;20467;-80
2023/09/22 13:36:50;;;;;;;3.43;3.20;;;;;;;;;;4979720;28;20507;-80
2023/09/22 13:39:17;;;;;;;3.80;3.30;;;;;;;;;;4988217;28;20467;-82
2023/09/22 13:41:45;;;;;;;4.97;4.57;;;;;;;;;;4979710;28;20467;-79
2023/09/22 13:44:11;;;;;;;4.20;3.70;;;;;;;;;;4979761;28;20475;-80
2023/09/22 13:46:38;;;;;;;3.70;3.40;;;;;;;;;;4979258;28;20472;-80
2023/09/22 13:49:04;;;;;;;3.97;3.67;;;;;;;;;;4979509;28;20494;-80
2023/09/22 13:51:31;;;;;;;3.90;3.60;;;;;;;;;;4958198;28;20476;-80
2023/09/22 13:53:57;;;;;;;4.60;3.73;;;;;;;;;;4981970;28;20854;-81
2023/09/22 13:56:25;;;;;;;4.50;3.67;;;;;;;;;;4994519;28;20851;-80
2023/09/22 13:58:52;;;;;;;3.90;3.60;;;;;;;;;;4987858;28;20912;-81
2023/09/22 14:01:21;;;;;;;3.90;3.63;;;;;;;;;;4960734;28;20819;-80
2023/09/22 14:03:48;;;;;;;3.67;3.37;;;;;;;;;;4970994;28;20479;-80
2023/09/22 14:06:15;;;;;;;4.17;3.87;;;;;;;;;;4978366;28;20557;-80
2023/09/22 14:08:42;;;;;;;3.67;3.40;;;;;;;;;;4981171;28;20475;-79
2023/09/22 14:11:09;;;;;;;8.13;3.43;;;;;;;;;;4971743;28;20852;-80
2023/09/22 14:13:37;;;;;;;3.73;3.43;;;;;;;;;;4974370;28;20549;-81
2023/09/22 14:16:06;;;;;;;5.63;3.53;;;;;;;;;;4967191;28;20471;-79
2023/09/22 14:18:33;;;;;;;5.00;3.37;;;;;;;;;;4980797;28;20467;-79
2023/09/22 14:20:59;;;;;;;3.20;3.00;;;;;;;;;;4959152;28;20467;-81
2023/09/22 14:23:27;;;;;;;5.43;3.90;;;;;;;;;;4978047;28;21175;-80
2023/09/22 14:25:56;;;;;;;3.20;3.00;;;;;;;;;;4970657;28;20467;-80
2023/09/22 14:28:22;;;;;;;3.40;3.20;;;;;;;;;;4993035;28;20526;-80
2023/09/22 14:30:50;;;;;;;3.27;2.97;;;;;;;;;;4973467;28;20460;-80